createdAt,value
2018-02-01T00:01:30.958Z,6.03
2018-02-01T00:03:59.209Z,5.23
2018-02-01T00:06:28.198Z,5.57
2018-02-01T00:08:57.235Z,5.23
2018-02-01T00:11:25.465Z,4.53
2018-02-01T00:13:54.496Z,6.80
2018-02-01T00:16:22.757Z,5.40
2018-02-01T00:18:50.999Z,5.33
2018-02-01T00:21:19.294Z,6.20
2018-02-01T00:23:47.508Z,5.43
2018-02-01T00:26:15.803Z,5.80
2018-02-01T00:28:44.033Z,6.43
2018-02-01T00:31:12.295Z,6.00
2018-02-01T00:33:40.521Z,7.30
2018-02-01T00:36:09.313Z,6.33
2018-02-01T00:38:37.557Z,5.50
2018-02-01T00:41:06.542Z,5.80
2018-02-01T00:43:35.581Z,5.00
2018-02-01T00:46:03.823Z,5.43
2018-02-01T00:48:32.095Z,5.40
2018-02-01T00:51:01.139Z,5.50
2018-02-01T00:53:29.393Z,5.30
2018-02-01T00:55:57.895Z,4.60
2018-02-01T00:58:26.148Z,3.43
2018-02-01T01:00:54.392Z,5.97
2018-02-01T01:03:22.621Z,4.50
2018-02-01T01:05:50.898Z,3.70
2018-02-01T01:08:19.118Z,4.67
2018-02-01T01:10:48.167Z,4.70
2018-02-01T01:13:16.449Z,5.43
2018-02-01T01:15:44.726Z,4.67
2018-02-01T01:18:13.096Z,5.47
2018-02-01T01:20:41.372Z,4.10
2018-02-01T01:23:09.621Z,4.10
2018-02-01T01:25:39.343Z,3.10
2018-02-01T01:28:08.360Z,4.30
2018-02-01T01:30:36.599Z,4.93
2018-02-01T01:33:05.616Z,4.73
2018-02-01T01:35:33.858Z,3.60
2018-02-01T01:38:02.105Z,3.53
2018-02-01T01:40:30.337Z,4.33
2018-02-01T01:42:59.342Z,4.37
2018-02-01T01:45:27.585Z,4.20
2018-02-01T01:47:56.643Z,3.93
2018-02-01T01:50:24.903Z,3.57
2018-02-01T01:52:53.147Z,4.83
2018-02-01T01:55:22.189Z,4.17
2018-02-01T01:57:50.414Z,4.27
2018-02-01T02:00:19.454Z,4.60
2018-02-01T02:02:47.728Z,4.60
2018-02-01T02:05:15.964Z,5.33
2018-02-01T02:07:44.235Z,4.17
2018-02-01T02:10:14.006Z,4.73
2018-02-01T02:12:42.258Z,4.77
2018-02-01T02:15:10.564Z,4.00
2018-02-01T02:17:38.858Z,5.40
2018-02-01T02:20:07.113Z,5.30
2018-02-01T02:22:35.379Z,4.70
2018-02-01T02:25:03.626Z,5.90
2018-02-01T02:27:32.663Z,7.27
2018-02-01T02:30:00.904Z,6.23
2018-02-01T02:32:29.194Z,6.23
2018-02-01T02:34:58.193Z,7.53
2018-02-01T02:37:26.478Z,6.00
2018-02-01T02:39:54.756Z,5.70
2018-02-01T02:42:23.729Z,6.60
2018-02-01T02:44:51.998Z,6.30
2018-02-01T02:47:21.003Z,7.77
2018-02-01T02:49:50.021Z,7.20
2018-02-01T02:52:18.299Z,7.57
2018-02-01T02:54:46.549Z,7.33
2018-02-01T02:57:15.546Z,7.40
2018-02-01T02:59:43.818Z,7.03
2018-02-01T03:02:12.023Z,8.00
2018-02-01T03:04:40.274Z,7.63
2018-02-01T03:07:08.540Z,8.90
2018-02-01T03:09:37.580Z,7.50
2018-02-01T03:12:05.826Z,8.20
2018-02-01T03:14:34.103Z,8.50
2018-02-01T03:17:03.102Z,9.40
2018-02-01T03:19:31.346Z,7.80
2018-02-01T03:21:59.589Z,8.43
2018-02-01T03:24:27.852Z,7.23
2018-02-01T03:26:56.123Z,8.50
2018-02-01T03:29:24.417Z,9.07
2018-02-01T03:31:52.646Z,8.90
2018-02-01T03:34:21.655Z,9.70
2018-02-01T03:36:49.912Z,8.70
2018-02-01T03:39:18.153Z,9.87
2018-02-01T03:41:46.400Z,8.10
2018-02-01T03:44:14.628Z,9.70
2018-02-01T03:46:43.653Z,9.07
2018-02-01T03:49:11.932Z,8.33
2018-02-01T03:51:40.193Z,9.30
2018-02-01T03:54:09.196Z,9.27
2018-02-01T03:56:37.476Z,9.60
2018-02-01T03:59:06.474Z,10.03
2018-02-01T04:01:35.502Z,9.50
2018-02-01T04:04:03.754Z,13.83
2018-02-01T04:06:32.002Z,9.40
2018-02-01T04:09:01.023Z,8.07
2018-02-01T04:11:29.314Z,8.50
2018-02-01T04:13:57.579Z,8.90
2018-02-01T04:16:26.770Z,8.47
2018-02-01T04:18:55.793Z,7.87
2018-02-01T04:21:24.077Z,8.60
2018-02-01T04:23:52.317Z,8.87
2018-02-01T04:26:21.360Z,8.10
2018-02-01T04:28:49.578Z,9.30
2018-02-01T04:31:17.836Z,8.70
2018-02-01T04:33:47.663Z,8.30
2018-02-01T04:36:15.852Z,8.87
2018-02-01T04:38:44.886Z,9.60
2018-02-01T04:41:13.164Z,9.67
2018-02-01T04:43:41.405Z,7.87
2018-02-01T04:46:09.664Z,9.27
2018-02-01T04:48:37.910Z,8.10
2018-02-01T04:51:06.181Z,7.33
2018-02-01T04:53:34.452Z,8.30
2018-02-01T04:56:02.724Z,8.90
2018-02-01T04:58:31.742Z,8.20
2018-02-01T05:00:59.995Z,8.70
2018-02-01T05:03:28.230Z,7.40
2018-02-01T05:05:57.236Z,6.53
2018-02-01T05:08:26.265Z,7.70
2018-02-01T05:10:54.562Z,7.77
2018-02-01T05:13:22.802Z,7.47
2018-02-01T05:15:51.058Z,7.73
2018-02-01T05:18:19.300Z,6.20
2018-02-01T05:20:47.576Z,8.50
2018-02-01T05:23:15.840Z,7.67
2018-02-01T05:25:45.731Z,8.07
2018-02-01T05:28:13.970Z,7.23
2018-02-01T05:30:43.030Z,7.67
2018-02-01T05:33:11.314Z,6.33
2018-02-01T05:35:39.597Z,6.87
2018-02-01T05:38:07.866Z,7.63
2018-02-01T05:40:36.151Z,7.60
2018-02-01T05:43:04.429Z,6.30
2018-02-01T05:45:32.713Z,6.67
2018-02-01T05:48:00.958Z,6.60
2018-02-01T05:50:29.205Z,7.30
2018-02-01T05:52:57.621Z,7.33
2018-02-01T05:55:25.893Z,7.90
2018-02-01T05:57:54.143Z,7.30
2018-02-01T06:00:24.380Z,6.90
2018-02-01T06:02:52.604Z,8.07
2018-02-01T06:05:20.849Z,6.10
2018-02-01T06:07:49.118Z,6.73
2018-02-01T06:10:17.401Z,7.23
2018-02-01T06:12:45.665Z,6.50
2018-02-01T06:15:13.937Z,7.53
2018-02-01T06:17:42.176Z,7.33
2018-02-01T06:20:11.245Z,6.97
2018-02-01T06:22:40.282Z,6.83
2018-02-01T06:25:09.323Z,10.73
2018-02-01T06:27:37.562Z,7.80
2018-02-01T06:30:06.572Z,5.97
2018-02-01T06:32:35.342Z,6.63
2018-02-01T06:35:04.350Z,6.27
2018-02-01T06:37:32.610Z,6.77
2018-02-01T06:40:01.673Z,6.87
2018-02-01T06:42:29.894Z,5.60
2018-02-01T06:44:58.143Z,41.67
2018-02-01T06:47:27.278Z,6.10
2018-02-01T06:49:55.529Z,11.23
2018-02-01T06:52:24.545Z,6.50
2018-02-01T06:54:52.782Z,5.27
2018-02-01T06:57:21.069Z,5.13
2018-02-01T06:59:49.339Z,5.80
2018-02-01T07:02:17.598Z,5.77
2018-02-01T07:04:45.862Z,4.97
2018-02-01T07:07:14.139Z,5.63
2018-02-01T07:09:42.390Z,4.90
2018-02-01T07:12:10.651Z,6.23
2018-02-01T07:14:39.690Z,7.43
2018-02-01T07:17:07.927Z,7.03
2018-02-01T07:19:36.211Z,6.93
2018-02-01T07:22:04.471Z,5.47
2018-02-01T07:24:33.478Z,6.37
2018-02-01T07:27:02.511Z,4.90
2018-02-01T07:29:30.763Z,4.97
2018-02-01T07:31:59.046Z,5.23
2018-02-01T07:34:27.291Z,6.57
2018-02-01T07:36:56.297Z,5.73
2018-02-01T07:39:24.537Z,4.60
2018-02-01T07:41:52.810Z,4.40
2018-02-01T07:44:21.981Z,5.53
2018-02-01T07:46:56.690Z,4.90
2018-02-01T07:49:25.684Z,5.33
2018-02-01T07:51:53.971Z,6.17
2018-02-01T07:54:22.235Z,6.50
2018-02-01T07:56:50.473Z,6.40
2018-02-01T07:59:18.733Z,7.00
2018-02-01T08:01:48.498Z,4.77
2018-02-01T08:04:16.763Z,5.50
2018-02-01T08:06:45.752Z,5.00
2018-02-01T08:09:14.809Z,4.70
2018-02-01T08:11:43.086Z,4.70
2018-02-01T08:14:11.312Z,5.90
2018-02-01T08:16:40.373Z,4.03
2018-02-01T08:19:08.611Z,4.00
2018-02-01T08:21:36.870Z,4.40
2018-02-01T08:24:05.868Z,4.30
2018-02-01T08:26:34.237Z,5.67
2018-02-01T08:29:02.423Z,3.10
2018-02-01T08:31:31.445Z,3.50
2018-02-01T08:33:59.713Z,4.50
2018-02-01T08:36:28.722Z,7.07
2018-02-01T08:38:56.992Z,4.67
2018-02-01T08:41:25.249Z,4.90
2018-02-01T08:43:54.250Z,3.97
2018-02-01T08:46:22.506Z,3.63
2018-02-01T08:48:51.545Z,3.70
2018-02-01T08:51:19.819Z,6.40
2018-02-01T08:53:48.035Z,3.90
2018-02-01T08:56:16.279Z,3.77
2018-02-01T08:58:44.535Z,3.50
2018-02-01T09:01:12.778Z,3.70
2018-02-01T09:03:41.810Z,3.10
2018-02-01T09:06:10.066Z,4.73
2018-02-01T09:08:38.350Z,3.43
2018-02-01T09:11:07.403Z,3.13
2018-02-01T09:13:35.627Z,3.37
2018-02-01T09:16:03.865Z,3.03
2018-02-01T09:18:32.883Z,3.20
2018-02-01T09:21:01.919Z,2.83
2018-02-01T09:23:30.212Z,4.20
2018-02-01T09:25:58.447Z,3.93
2018-02-01T09:28:26.686Z,3.80
2018-02-01T09:30:56.434Z,2.83
2018-02-01T09:33:24.667Z,3.60
2018-02-01T09:35:53.166Z,3.37
2018-02-01T09:38:22.203Z,3.10
2018-02-01T09:40:50.440Z,3.13
2018-02-01T09:43:19.446Z,3.60
2018-02-01T09:45:48.482Z,2.80
2018-02-01T09:48:16.737Z,3.13
2018-02-01T09:50:45.787Z,3.07
2018-02-01T09:53:14.016Z,2.50
2018-02-01T09:55:42.451Z,3.17
2018-02-01T09:58:10.683Z,3.03
2018-02-01T10:00:38.962Z,3.17
2018-02-01T10:03:07.197Z,3.90
2018-02-01T10:05:36.254Z,3.20
2018-02-01T10:08:04.493Z,3.10
2018-02-01T10:10:32.812Z,3.80
2018-02-01T10:13:01.057Z,3.10
2018-02-01T10:15:29.330Z,3.60
2018-02-01T10:17:57.628Z,3.47
2018-02-01T10:20:25.882Z,3.40
2018-02-01T10:22:54.133Z,4.33
2018-02-01T10:25:22.629Z,2.63
2018-02-01T10:27:50.876Z,4.03
2018-02-01T10:30:20.617Z,3.70
2018-02-01T10:32:48.869Z,2.67
2018-02-01T10:35:17.136Z,2.70
2018-02-01T10:37:46.188Z,3.20
2018-02-01T10:40:14.418Z,3.00
2018-02-01T10:42:42.684Z,2.50
2018-02-01T10:45:10.912Z,3.70
2018-02-01T10:47:39.193Z,2.83
2018-02-01T10:50:07.437Z,3.30
2018-02-01T10:52:36.446Z,2.60
2018-02-01T10:55:04.781Z,3.63
2018-02-01T10:57:33.190Z,2.80
2018-02-01T11:00:01.492Z,1.90
2018-02-01T11:02:29.705Z,2.63
2018-02-01T11:04:57.949Z,2.50
2018-02-01T11:07:26.197Z,3.93
2018-02-01T11:09:55.702Z,3.20
2018-02-01T11:12:23.960Z,2.73
2018-02-01T11:14:52.327Z,2.57
2018-02-01T11:17:20.605Z,1.87
2018-02-01T11:19:48.911Z,3.50
2018-02-01T11:22:17.965Z,3.67
2018-02-01T11:24:46.253Z,2.80
2018-02-01T11:27:14.533Z,3.03
2018-02-01T11:29:42.804Z,1.93
2018-02-01T11:32:11.063Z,2.43
2018-02-01T11:34:39.310Z,2.73
2018-02-01T11:37:08.333Z,3.23
2018-02-01T11:39:36.560Z,3.20
2018-02-01T11:42:04.835Z,3.43
2018-02-01T11:44:33.057Z,2.50
2018-02-01T11:47:01.323Z,3.17
2018-02-01T11:49:30.303Z,3.40
2018-02-01T11:51:59.338Z,2.77
2018-02-01T11:54:28.135Z,2.53
2018-02-01T11:56:56.387Z,2.53
2018-02-01T11:59:24.684Z,2.80
2018-02-01T12:01:52.932Z,3.00
2018-02-01T12:04:21.938Z,3.20
2018-02-01T12:06:50.185Z,2.93
2018-02-01T12:09:19.212Z,2.90
2018-02-01T12:11:47.457Z,2.50
2018-02-01T12:14:16.476Z,3.40
2018-02-01T12:16:44.745Z,3.10
2018-02-01T12:19:13.741Z,3.53
2018-02-01T12:21:41.978Z,1.93
2018-02-01T12:24:10.219Z,3.53
2018-02-01T12:26:38.500Z,2.80
2018-02-01T12:29:06.725Z,1.73
2018-02-01T12:31:34.991Z,3.10
2018-02-01T12:34:03.250Z,3.00
2018-02-01T12:36:31.474Z,2.40
2018-02-01T12:39:00.503Z,2.60
2018-02-01T12:41:28.784Z,3.03
2018-02-01T12:43:56.998Z,2.57
2018-02-01T12:46:25.242Z,2.00
2018-02-01T12:48:53.490Z,2.13
2018-02-01T12:51:21.774Z,2.40
2018-02-01T12:53:50.003Z,2.07
2018-02-01T12:56:18.255Z,2.70
2018-02-01T12:58:46.514Z,2.30
2018-02-01T13:01:14.782Z,3.13
2018-02-01T13:03:43.049Z,1.87
2018-02-01T13:06:12.070Z,2.30
2018-02-01T13:08:40.292Z,3.17
2018-02-01T13:11:08.562Z,2.40
2018-02-01T13:13:38.325Z,3.07
2018-02-01T13:16:06.631Z,2.23
2018-02-01T13:18:34.887Z,2.63
2018-02-01T13:21:03.173Z,3.43
2018-02-01T13:23:31.392Z,1.93
2018-02-01T13:25:59.653Z,7.33
2018-02-01T13:28:27.921Z,2.27
2018-02-01T13:30:56.160Z,3.27
2018-02-01T13:33:24.457Z,1.70
2018-02-01T13:35:52.706Z,1.93
2018-02-01T13:38:20.985Z,1.97
2018-02-01T13:40:49.213Z,2.73
2018-02-01T13:43:17.433Z,2.63
2018-02-01T13:45:45.682Z,1.80
2018-02-01T13:48:15.453Z,2.80
2018-02-01T13:50:43.692Z,2.53
2018-02-01T13:53:14.121Z,2.27
2018-02-01T13:55:43.032Z,2.23
2018-02-01T13:58:11.309Z,2.47
2018-02-01T14:00:39.571Z,2.80
2018-02-01T14:03:08.742Z,2.93
2018-02-01T14:05:36.955Z,2.47
2018-02-01T14:08:05.190Z,3.73
2018-02-01T14:10:33.592Z,2.90
2018-02-01T14:13:01.820Z,2.20
2018-02-01T14:15:30.953Z,2.20
2018-02-01T14:17:59.208Z,2.63
2018-02-01T14:20:27.465Z,2.83
2018-02-01T14:22:55.780Z,2.90
2018-02-01T14:25:23.992Z,1.60
2018-02-01T14:27:52.241Z,2.83
2018-02-01T14:30:20.862Z,2.00
2018-02-01T14:32:50.722Z,3.10
2018-02-01T14:35:18.974Z,2.60
2018-02-01T14:37:47.277Z,2.90
2018-02-01T14:40:15.514Z,2.47
2018-02-01T14:42:43.812Z,1.63
2018-02-01T14:45:12.053Z,1.93
2018-02-01T14:47:40.306Z,2.73
2018-02-01T14:50:08.572Z,2.33
2018-02-01T14:52:36.923Z,2.07
2018-02-01T14:55:05.136Z,2.43
2018-02-01T14:57:33.404Z,2.53
2018-02-01T15:00:01.708Z,2.37
2018-02-01T15:02:31.183Z,3.03
2018-02-01T15:04:59.412Z,3.30
2018-02-01T15:07:27.645Z,2.10
2018-02-01T15:09:55.870Z,3.13
2018-02-01T15:12:24.122Z,2.20
2018-02-01T15:14:53.173Z,2.70
2018-02-01T15:17:21.458Z,2.93
2018-02-01T15:19:49.704Z,2.50
2018-02-01T15:22:17.958Z,2.40
2018-02-01T15:24:46.241Z,3.63
2018-02-01T15:27:14.481Z,2.40
2018-02-01T15:29:42.718Z,4.07
2018-02-01T15:32:10.992Z,2.90
2018-02-01T15:34:39.264Z,7.90
2018-02-01T15:37:07.487Z,3.03
2018-02-01T15:39:35.766Z,3.80
2018-02-01T15:42:04.017Z,2.60
2018-02-01T15:44:32.299Z,4.13
2018-02-01T15:47:00.577Z,2.30
2018-02-01T15:49:28.806Z,6.43
2018-02-01T15:51:57.088Z,2.63
2018-02-01T15:54:25.343Z,2.60
2018-02-01T15:56:54.376Z,2.83
2018-02-01T15:59:23.645Z,4.00
2018-02-01T16:01:52.674Z,2.60
2018-02-01T16:04:20.940Z,4.30
2018-02-01T16:06:50.003Z,3.30
2018-02-01T16:09:19.035Z,4.80
2018-02-01T16:11:47.631Z,4.73
2018-02-01T16:14:15.911Z,3.47
2018-02-01T16:16:44.172Z,3.63
2018-02-01T16:19:13.949Z,2.80
2018-02-01T16:21:43.702Z,3.17
2018-02-01T16:24:11.944Z,3.37
2018-02-01T16:26:40.248Z,5.30
2018-02-01T16:29:09.304Z,2.97
2018-02-01T16:31:37.546Z,4.30
2018-02-01T16:34:05.813Z,4.43
2018-02-01T16:36:34.057Z,4.43
2018-02-01T16:39:02.349Z,5.23
2018-02-01T16:41:31.374Z,3.23
2018-02-01T16:43:59.630Z,4.60
2018-02-01T16:46:27.890Z,3.10
2018-02-01T16:48:56.925Z,4.77
2018-02-01T16:51:25.189Z,4.87
2018-02-01T16:53:54.221Z,14.70
2018-02-01T16:56:22.478Z,3.90
2018-02-01T16:58:50.737Z,5.63
2018-02-01T17:01:19.013Z,4.80
2018-02-01T17:03:47.324Z,7.40
2018-02-01T17:06:15.574Z,4.83
2018-02-01T17:08:43.844Z,6.23
2018-02-01T17:11:12.139Z,5.40
2018-02-01T17:13:41.286Z,5.80
2018-02-01T17:16:10.317Z,5.13
2018-02-01T17:18:38.606Z,6.00
2018-02-01T17:21:06.869Z,5.60
2018-02-01T17:23:35.139Z,6.23
2018-02-01T17:26:03.427Z,7.30
2018-02-01T17:28:31.740Z,7.53
2018-02-01T17:31:00.017Z,7.27
2018-02-01T17:33:28.267Z,8.47
2018-02-01T17:35:56.531Z,7.50
2018-02-01T17:38:24.773Z,8.67
2018-02-01T17:40:53.834Z,8.23
2018-02-01T17:43:22.080Z,7.60
2018-02-01T17:45:50.350Z,8.40
2018-02-01T17:48:18.615Z,7.87
2018-02-01T17:50:47.597Z,9.20
2018-02-01T17:53:16.680Z,7.87
2018-02-01T17:55:46.437Z,8.70
2018-02-01T17:58:14.732Z,7.33
2018-02-01T18:00:42.993Z,9.10
2018-02-01T18:03:11.314Z,8.10
2018-02-01T18:05:39.608Z,8.80
2018-02-01T18:08:07.834Z,9.70
2018-02-01T18:10:36.119Z,9.33
2018-02-01T18:13:04.371Z,8.80
2018-02-01T18:15:33.382Z,9.50
2018-02-01T18:18:01.672Z,9.90
2018-02-01T18:20:30.149Z,10.00
2018-02-01T18:22:58.435Z,18.03
2018-02-01T18:25:26.682Z,13.20
2018-02-01T18:27:54.951Z,9.10
2018-02-01T18:30:23.765Z,9.60
2018-02-01T18:32:52.060Z,10.30
2018-02-01T18:35:20.281Z,10.70
2018-02-01T18:37:49.342Z,10.90
2018-02-01T18:40:17.618Z,11.50
2018-02-01T18:42:45.963Z,11.40
2018-02-01T18:45:14.261Z,12.30
2018-02-01T18:47:42.513Z,11.17
2018-02-01T18:50:10.880Z,12.17
2018-02-01T18:52:39.914Z,13.80
2018-02-01T18:55:08.146Z,13.20
2018-02-01T18:57:37.223Z,13.37
2018-02-01T19:00:05.514Z,13.30
2018-02-01T19:02:34.551Z,11.40
2018-02-01T19:05:02.850Z,14.20
2018-02-01T19:07:31.125Z,13.13
2018-02-01T19:09:59.896Z,13.83
2018-02-01T19:12:28.165Z,14.00
2018-02-01T19:14:56.489Z,12.77
2018-02-01T19:17:24.748Z,14.03
2018-02-01T19:19:53.032Z,13.37
2018-02-01T19:22:21.283Z,13.40
2018-02-01T19:24:49.559Z,14.50
2018-02-01T19:27:18.577Z,12.83
2018-02-01T19:29:46.843Z,13.30
2018-02-01T19:32:15.254Z,13.10
2018-02-01T19:34:43.546Z,15.47
2018-02-01T19:37:11.825Z,13.50
2018-02-01T19:39:40.086Z,13.57
2018-02-01T19:42:08.368Z,13.27
2018-02-01T19:44:37.848Z,13.83
2018-02-01T19:47:06.147Z,13.80
2018-02-01T19:49:34.426Z,13.10
2018-02-01T19:52:02.685Z,12.67
2018-02-01T19:54:30.989Z,13.10
2018-02-01T19:56:59.281Z,16.07
2018-02-01T19:59:28.287Z,13.57
2018-02-01T20:01:58.130Z,13.83
2018-02-01T20:04:26.365Z,31.63
2018-02-01T20:06:55.433Z,16.00
2018-02-01T20:09:23.673Z,13.50
2018-02-01T20:11:51.957Z,13.63
2018-02-01T20:14:21.074Z,13.60
2018-02-01T20:16:49.379Z,12.63
2018-02-01T20:19:17.753Z,14.23
2018-02-01T20:21:45.957Z,12.77
2018-02-01T20:24:14.230Z,13.17
2018-02-01T20:26:42.543Z,16.10
2018-02-01T20:29:10.806Z,15.03
2018-02-01T20:31:39.086Z,13.60
2018-02-01T20:34:07.366Z,13.10
2018-02-01T20:36:35.649Z,14.70
2018-02-01T20:39:03.964Z,13.30
2018-02-01T20:41:32.258Z,14.50
2018-02-01T20:44:01.355Z,13.90
2018-02-01T20:46:29.585Z,16.20
2018-02-01T20:48:57.861Z,13.70
2018-02-01T20:51:26.154Z,14.50
2018-02-01T20:53:54.466Z,13.03
2018-02-01T20:56:22.756Z,15.47
2018-02-01T20:58:51.117Z,14.10
2018-02-01T21:01:21.346Z,12.90
2018-02-01T21:03:50.384Z,13.60
2018-02-01T21:06:18.687Z,13.90
2018-02-01T21:08:47.115Z,14.23
2018-02-01T21:11:16.191Z,13.63
2018-02-01T21:13:44.465Z,15.50
2018-02-01T21:16:13.490Z,14.63
2018-02-01T21:18:41.786Z,14.80
2018-02-01T21:21:10.056Z,13.70
2018-02-01T21:23:39.095Z,15.37
2018-02-01T21:26:07.349Z,16.40
2018-02-01T21:28:35.612Z,16.10
2018-02-01T21:31:04.413Z,14.03
2018-02-01T21:33:32.695Z,14.13
2018-02-01T21:36:01.031Z,15.10
2018-02-01T21:38:30.793Z,15.03
2018-02-01T21:40:59.070Z,16.93
2018-02-01T21:43:27.354Z,16.60
2018-02-01T21:45:55.690Z,14.73
2018-02-01T21:48:24.691Z,14.67
2018-02-01T21:50:52.981Z,15.10
2018-02-01T21:53:21.302Z,16.00
2018-02-01T21:55:49.582Z,14.43
2018-02-01T21:58:19.341Z,13.57
2018-02-01T22:00:47.602Z,15.67
2018-02-01T22:03:15.916Z,14.40
2018-02-01T22:05:44.218Z,14.20
2018-02-01T22:08:12.494Z,15.53
2018-02-01T22:10:40.818Z,14.30
2018-02-01T22:13:09.098Z,15.60
2018-02-01T22:15:37.381Z,15.10
2018-02-01T22:18:05.683Z,14.93
2018-02-01T22:20:33.975Z,14.67
2018-02-01T22:23:02.279Z,16.27
2018-02-01T22:25:31.601Z,14.60
2018-02-01T22:27:59.887Z,16.97
2018-02-01T22:30:28.132Z,16.30
2018-02-01T22:32:57.194Z,16.40
2018-02-01T22:35:25.459Z,17.80
2018-02-01T22:37:53.695Z,16.93
2018-02-01T22:40:22.744Z,14.17
2018-02-01T22:42:50.997Z,17.60
2018-02-01T22:45:19.259Z,17.33
2018-02-01T22:47:48.305Z,16.03
2018-02-01T22:50:16.547Z,16.67
2018-02-01T22:52:44.822Z,17.93
2018-02-01T22:55:13.083Z,16.23
2018-02-01T22:57:42.136Z,16.43
2018-02-01T23:00:10.406Z,15.80
2018-02-01T23:02:40.212Z,15.77
2018-02-01T23:05:08.497Z,16.33
2018-02-01T23:07:36.730Z,16.30
2018-02-01T23:10:05.092Z,15.40
2018-02-01T23:12:33.362Z,15.40
2018-02-01T23:15:01.837Z,17.17
2018-02-01T23:17:30.161Z,17.00
2018-02-01T23:19:58.393Z,16.63
2018-02-01T23:22:28.155Z,15.10
2018-02-01T23:24:56.417Z,17.00
2018-02-01T23:27:24.705Z,17.77
2018-02-01T23:29:53.374Z,18.87
2018-02-01T23:32:22.391Z,18.57
2018-02-01T23:34:50.644Z,16.13
2018-02-01T23:37:18.903Z,17.37
2018-02-01T23:39:47.186Z,15.40
2018-02-01T23:42:16.215Z,15.10
2018-02-01T23:44:44.498Z,15.47
2018-02-01T23:47:12.745Z,16.10
2018-02-01T23:49:41.005Z,14.43
2018-02-01T23:52:10.023Z,15.40
2018-02-01T23:54:38.279Z,15.03
2018-02-01T23:57:07.304Z,16.07
2018-02-01T23:59:35.554Z,14.27
